Time;durP1;ratioP1;P1;durP2;ratioP2;P2;SDS_P1;SDS_P2;PMS_P1;PMS_P2;Temp;Humidity;BMP_temperature;BMP_pressure;BME280_temperature;BME280_humidity;BME280_pressure;Samples;Min_cycle;Max_cycle;Signal;HPM_P1;HPM_P2
2022/07/23 00:02:25;;;;;;;8.10;2.97;;;;;;;20.34;58.12;94879.50;5061465;28;20573;-74
2022/07/23 00:04:54;;;;;;;4.43;2.88;;;;;;;20.50;56.80;94872.53;5055846;28;20195;-75
2022/07/23 00:07:21;;;;;;;9.98;3.25;;;;;;;20.25;56.97;94885.31;5059071;28;20228;-75
2022/07/23 00:09:48;;;;;;;4.93;3.53;;;;;;;20.22;57.03;94884.16;5066844;28;20271;-75
2022/07/23 00:12:15;;;;;;;7.72;2.78;;;;;;;20.13;57.16;94874.63;5065748;28;20199;-76
2022/07/23 00:14:42;;;;;;;3.53;2.60;;;;;;;20.04;57.68;94883.22;5068482;28;20204;-75
2022/07/23 00:17:09;;;;;;;10.10;2.65;;;;;;;19.98;57.51;94889.44;5066475;28;20260;-76
2022/07/23 00:19:36;;;;;;;4.28;2.80;;;;;;;19.97;57.57;94887.84;5060317;28;20233;-76
2022/07/23 00:22:04;;;;;;;4.20;2.88;;;;;;;19.77;58.58;94892.81;5061230;28;20590;-76
2022/07/23 00:24:31;;;;;;;5.30;3.47;;;;;;;19.71;61.05;94897.84;5053462;28;20212;-75
2022/07/23 00:26:58;;;;;;;4.57;3.30;;;;;;;19.73;61.58;94895.53;5066247;28;20723;-75
2022/07/23 00:29:25;;;;;;;5.70;3.08;;;;;;;19.76;62.35;94900.28;5065684;28;20207;-76
2022/07/23 00:31:52;;;;;;;10.32;3.80;;;;;;;19.73;62.50;94895.53;5053500;28;20203;-75
2022/07/23 00:34:18;;;;;;;6.63;3.22;;;;;;;19.68;63.04;94898.59;5073049;28;20257;-75
2022/07/23 00:36:45;;;;;;;5.65;2.95;;;;;;;19.73;62.38;94898.28;5059781;28;20231;-75
2022/07/23 00:39:13;;;;;;;5.43;3.30;;;;;;;19.75;62.52;94901.44;5073918;28;20244;-75
2022/07/23 00:41:40;;;;;;;5.38;3.38;;;;;;;19.69;62.12;94900.19;5059667;28;20307;-75
2022/07/23 00:44:19;;;;;;;6.65;3.40;;;;;;;19.69;61.95;94900.19;5064359;28;20211;-75
2022/07/23 00:46:52;;;;;;;5.82;2.58;;;;;;;19.63;61.58;94896.22;5059972;28;20246;-75
2022/07/23 00:49:21;;;;;;;4.20;2.80;;;;;;;19.59;61.94;94897.34;5063132;28;20202;-74
2022/07/23 00:51:48;;;;;;;5.28;3.25;;;;;;;19.60;62.09;94896.19;5066788;28;20237;-75
2022/07/23 00:54:18;;;;;;;6.65;3.42;;;;;;;19.60;62.07;94896.97;5053612;28;20203;-75
2022/07/23 00:56:46;;;;;;;4.68;2.97;;;;;;;19.62;60.90;94889.16;5057625;28;20207;-75
2022/07/23 00:59:13;;;;;;;4.28;2.95;;;;;;;19.47;60.48;94901.13;5061361;28;20214;-75
2022/07/23 01:01:41;;;;;;;7.95;3.15;;;;;;;19.49;60.15;94896.09;5066666;28;20253;-75
2022/07/23 01:04:08;;;;;;;16.23;3.05;;;;;;;19.47;60.03;94901.13;5065265;28;20285;-75
2022/07/23 01:06:36;;;;;;;8.13;3.13;;;;;;;19.50;59.54;94892.97;5059242;28;20235;-75
2022/07/23 01:09:04;;;;;;;4.53;2.78;;;;;;;19.41;59.49;94895.19;5060187;28;20210;-77
2022/07/23 01:11:34;;;;;;;9.02;3.53;;;;;;;19.29;59.92;94889.16;5066012;28;20265;-75
2022/07/23 01:14:09;;;;;;;5.72;3.67;;;;;;;19.18;60.37;94892.59;5065264;28;20207;-75
2022/07/23 01:16:35;;;;;;;3.97;2.55;;;;;;;19.03;61.62;94896.34;5059382;28;20720;-75
2022/07/23 01:19:04;;;;;;;10.43;3.20;;;;;;;18.98;60.96;94891.19;5070423;28;20731;-75
2022/07/23 01:21:31;;;;;;;5.00;3.05;;;;;;;19.04;61.32;94891.63;5052076;28;20215;-75
2022/07/23 01:23:59;;;;;;;4.70;2.85;;;;;;;19.03;60.79;94879.88;5065720;28;20719;-75
2022/07/23 01:26:26;;;;;;;8.30;3.08;;;;;;;19.07;61.24;94880.72;5060485;28;20278;-77
2022/07/23 01:28:53;;;;;;;5.05;2.90;;;;;;;19.08;61.32;94887.78;5059485;28;20211;-76
2022/07/23 01:31:20;;;;;;;4.40;2.72;;;;;;;19.14;60.82;94885.47;5063952;28;20519;-75
2022/07/23 01:33:47;;;;;;;5.97;2.85;;;;;;;19.05;61.37;94883.03;5066065;28;20256;-75
2022/07/23 01:36:14;;;;;;;4.43;3.10;;;;;;;19.07;61.22;94875.22;5061350;28;20219;-76
2022/07/23 01:38:41;;;;;;;4.38;3.08;;;;;;;19.20;60.62;94883.19;5071815;28;20225;-75
2022/07/23 01:41:09;;;;;;;5.53;3.63;;;;;;;19.21;61.59;94876.53;5062346;28;20199;-76
2022/07/23 01:43:35;;;;;;;6.25;3.33;;;;;;;19.12;62.06;94882.34;5059321;28;20753;-75
2022/07/23 01:46:03;;;;;;;6.07;2.72;;;;;;;19.05;62.44;94877.53;5073756;28;20258;-76
2022/07/23 01:48:30;;;;;;;5.90;2.90;;;;;;;18.90;63.19;94881.28;5070613;28;20663;-76
2022/07/23 01:50:56;;;;;;;5.70;2.80;;;;;;;18.88;62.95;94877.31;5063833;28;20252;-76
2022/07/23 01:53:23;;;;;;;5.65;3.33;;;;;;;18.76;63.07;94883.84;5059060;28;20354;-76
2022/07/23 01:55:50;;;;;;;6.60;3.22;;;;;;;18.83;62.71;94881.22;5061596;28;20203;-76
2022/07/23 01:58:18;;;;;;;5.93;2.88;;;;;;;18.78;62.55;94884.28;5065720;28;20215;-76
2022/07/23 02:00:45;;;;;;;4.45;2.97;;;;;;;18.73;62.73;94879.91;5063696;28;20195;-76
2022/07/23 02:03:12;;;;;;;8.25;3.00;;;;;;;18.72;63.47;94886.53;5058792;28;20571;-76
2022/07/23 02:05:39;;;;;;;5.97;3.00;;;;;;;18.69;63.89;94883.78;5060140;28;20223;-76
2022/07/23 02:08:06;;;;;;;5.15;2.83;;;;;;;18.68;63.54;94885.72;5056301;28;20207;-76
2022/07/23 02:10:32;;;;;;;14.23;3.10;;;;;;;18.73;63.79;94892.81;5059743;28;20302;-76
2022/07/23 02:12:59;;;;;;;4.60;3.08;;;;;;;18.70;63.84;94888.09;5064287;28;20203;-76
2022/07/23 02:15:28;;;;;;;7.28;2.70;;;;;;;18.65;64.11;94883.72;5051359;28;20203;-76
2022/07/23 02:17:55;;;;;;;4.18;3.17;;;;;;;18.56;64.70;94888.69;5057430;28;20203;-76
2022/07/23 02:20:23;;;;;;;8.90;3.25;;;;;;;18.64;64.69;94889.59;5060108;28;20211;-76
2022/07/23 02:22:50;;;;;;;9.23;3.63;;;;;;;18.58;64.31;94891.06;5065795;28;20269;-76
2022/07/23 02:25:17;;;;;;;5.57;3.13;;;;;;;18.64;64.00;94881.34;5062823;28;20293;-76
2022/07/23 02:27:43;;;;;;;8.90;4.15;;;;;;;18.76;63.28;94881.09;5057904;28;20273;-75
2022/07/23 02:30:11;;;;;;;4.45;2.90;;;;;;;18.83;62.57;94881.22;5059691;28;20208;-76
2022/07/23 02:32:40;;;;;;;5.07;3.38;;;;;;;18.84;63.18;94885.53;5064282;28;20608;-76
2022/07/23 02:35:09;;;;;;;4.32;2.75;;;;;;;18.63;63.92;94882.50;5064362;28;20226;-76
2022/07/23 02:37:36;;;;;;;4.60;3.08;;;;;;;18.49;64.11;94888.56;5059490;28;20272;-76
2022/07/23 02:40:03;;;;;;;3.75;3.03;;;;;;;18.47;64.94;94886.19;5069713;28;20207;-76
2022/07/23 02:42:30;;;;;;;7.88;3.15;;;;;;;18.39;65.37;94886.47;5056738;28;20215;-75
2022/07/23 02:44:56;;;;;;;6.28;3.33;;;;;;;18.30;65.96;94891.44;5066172;28;20222;-76
2022/07/23 02:47:23;;;;;;;7.82;2.95;;;;;;;18.28;65.71;94900.06;5063418;28;20617;-76
2022/07/23 02:49:51;;;;;;;4.72;3.08;;;;;;;18.25;66.21;94900.00;5064564;28;20256;-76
2022/07/23 02:52:18;;;;;;;5.57;3.42;;;;;;;18.32;65.63;94911.84;5059702;28;20289;-76
2022/07/23 02:54:45;;;;;;;4.95;3.10;;;;;;;18.30;65.38;94905.97;5057584;28;20329;-76
2022/07/23 02:57:12;;;;;;;6.97;3.33;;;;;;;18.34;65.64;94909.53;5062454;28;20207;-76
2022/07/23 02:59:38;;;;;;;5.78;2.88;;;;;;;18.46;64.76;94895.59;5064142;28;20670;-76
2022/07/23 03:02:05;;;;;;;6.45;3.55;;;;;;;18.48;65.06;94906.97;5050997;28;20728;-76
2022/07/23 03:04:32;;;;;;;5.30;3.42;;;;;;;18.43;65.57;94912.81;5063648;28;20203;-76
2022/07/23 03:07:00;;;;;;;7.07;3.97;;;;;;;18.37;65.36;94908.78;5059906;28;20238;-76
2022/07/23 03:09:27;;;;;;;13.38;3.53;;;;;;;18.34;65.94;94908.72;5057409;28;20253;-76
2022/07/23 03:11:54;;;;;;;6.35;4.07;;;;;;;18.44;65.27;94911.66;5061542;28;20229;-76
2022/07/23 03:14:21;;;;;;;5.50;3.13;;;;;;;18.54;65.77;94912.94;5063870;28;20199;-76
2022/07/23 03:16:49;;;;;;;7.75;3.83;;;;;;;18.61;65.42;94917.75;5050425;28;20203;-75
2022/07/23 03:19:16;;;;;;;4.57;2.80;;;;;;;18.69;65.35;94920.25;5063717;28;20567;-76
2022/07/23 03:21:43;;;;;;;10.43;3.22;;;;;;;18.83;64.81;94925.13;5060190;28;20203;-76
2022/07/23 03:24:11;;;;;;;6.20;3.63;;;;;;;19.01;64.70;94922.59;5057070;28;20208;-76
2022/07/23 03:26:38;;;;;;;5.28;3.42;;;;;;;19.24;63.77;94925.22;5060626;28;20297;-75
2022/07/23 03:29:05;;;;;;;8.98;3.70;;;;;;;19.59;62.74;94922.88;5063540;28;20670;-75
2022/07/23 03:31:32;;;;;;;4.28;3.08;;;;;;;19.91;61.91;94928.69;5050301;28;20269;-75
2022/07/23 03:33:59;;;;;;;6.03;3.53;;;;;;;20.22;60.08;94927.38;5063528;28;20289;-75
2022/07/23 03:36:26;;;;;;;7.35;3.80;;;;;;;20.25;59.30;94926.59;5059872;28;20283;-75
2022/07/23 03:38:54;;;;;;;9.70;3.80;;;;;;;20.69;57.99;94928.47;5069985;28;20206;-75
2022/07/23 03:41:22;;;;;;;8.30;3.13;;;;;;;21.17;56.14;94916.13;5057949;28;20284;-75
2022/07/23 03:43:49;;;;;;;6.70;3.53;;;;;;;21.73;54.96;94920.22;5059998;28;20648;-75
2022/07/23 03:46:16;;;;;;;10.23;4.93;;;;;;;22.20;53.93;94921.09;5082427;28;20244;-75
2022/07/23 03:48:43;;;;;;;6.38;3.60;;;;;;;22.98;52.27;94921.75;5065152;28;20212;-75
2022/07/23 03:51:10;;;;;;;5.90;3.95;;;;;;;23.60;50.40;94917.59;5062332;28;20610;-76
2022/07/23 03:53:37;;;;;;;6.93;3.88;;;;;;;24.28;48.78;94917.91;5056096;28;20610;-77
2022/07/23 03:56:04;;;;;;;6.72;3.80;;;;;;;24.67;48.19;94915.56;5056969;28;20207;-75
2022/07/23 03:58:32;;;;;;;5.97;3.50;;;;;;;25.24;47.33;94923.31;5063086;28;20211;-74
2022/07/23 04:00:59;;;;;;;8.43;5.07;;;;;;;25.38;46.74;94911.25;5062455;28;20202;-75
2022/07/23 04:03:26;;;;;;;8.88;5.13;;;;;;;25.96;45.28;94906.50;5056351;28;20198;-77
2022/07/23 04:05:53;;;;;;;6.60;5.00;;;;;;;26.27;44.75;94904.41;5055788;28;20227;-74
2022/07/23 04:08:19;;;;;;;6.65;4.78;;;;;;;26.75;43.98;94907.59;5062710;28;20231;-78
2022/07/23 04:10:46;;;;;;;7.80;4.93;;;;;;;27.33;42.99;94904.53;5063920;28;20252;-77
2022/07/23 04:13:13;;;;;;;7.82;5.68;;;;;;;27.17;42.90;94905.22;5062812;28;20208;-75
2022/07/23 04:15:41;;;;;;;10.10;5.03;;;;;;;27.38;42.14;94904.00;5062819;28;20199;-77
2022/07/23 04:18:08;;;;;;;7.47;5.00;;;;;;;27.28;42.24;94908.59;5057490;28;20207;-75
2022/07/23 04:20:35;;;;;;;11.43;5.45;;;;;;;27.35;41.94;94910.41;5056255;28;20210;-75
2022/07/23 04:23:02;;;;;;;8.10;4.88;;;;;;;27.77;40.56;94908.75;5062703;28;20215;-76
2022/07/23 04:25:29;;;;;;;11.93;5.72;;;;;;;29.02;38.73;94906.53;5063309;28;20234;-76
2022/07/23 04:27:55;;;;;;;7.00;5.07;;;;;;;28.95;38.41;94911.09;5049694;28;20226;-75
2022/07/23 04:30:22;;;;;;;6.22;4.78;;;;;;;29.30;38.03;94912.09;5063299;28;20195;-75
2022/07/23 04:32:50;;;;;;;11.05;5.47;;;;;;;29.52;38.12;94917.88;5057114;28;20257;-75
2022/07/23 04:35:17;;;;;;;9.75;5.03;;;;;;;29.69;38.14;94916.56;5056299;28;20319;-78
2022/07/23 04:37:44;;;;;;;9.90;5.75;;;;;;;29.68;37.59;94922.59;5069420;28;20195;-78
2022/07/23 04:40:12;;;;;;;9.23;5.93;;;;;;;30.28;36.98;94920.78;5054356;28;20207;-75
2022/07/23 04:42:39;;;;;;;11.32;5.57;;;;;;;31.07;35.36;94911.34;5054968;28;20737;-77
2022/07/23 04:45:07;;;;;;;9.05;6.25;;;;;;;31.85;34.31;94906.94;5065714;28;20222;-77
2022/07/23 04:47:34;;;;;;;9.23;6.47;;;;;;;31.76;34.64;94911.28;5060127;28;20808;-78
2022/07/23 04:50:02;;;;;;;11.52;6.50;;;;;;;32.57;33.73;94912.09;5063610;28;20252;-77
2022/07/23 04:52:29;;;;;;;9.23;5.93;;;;;;;33.16;32.53;94913.63;5049927;28;20204;-77
2022/07/23 04:54:56;;;;;;;10.90;5.85;;;;;;;33.11;32.07;94916.28;5066357;28;20215;-77
2022/07/23 04:57:23;;;;;;;8.98;6.20;;;;;;;33.46;32.02;94920.38;5063617;28;20276;-77
2022/07/23 04:59:50;;;;;;;8.73;6.10;;;;;;;33.74;31.32;94923.94;5059803;28;20206;-77
2022/07/23 05:02:17;;;;;;;7.70;6.38;;;;;;;34.01;30.92;94919.50;5063005;28;20203;-77
2022/07/23 05:04:43;;;;;;;13.65;6.80;;;;;;;33.36;31.78;94921.59;5066701;28;20277;-77
2022/07/23 05:07:13;;;;;;;8.10;6.20;;;;;;;33.08;32.43;94925.63;5063721;28;20292;-77
2022/07/23 05:09:39;;;;;;;7.90;5.90;;;;;;;33.53;32.13;94920.03;5060046;28;20231;-76
2022/07/23 05:12:07;;;;;;;9.32;6.55;;;;;;;33.64;32.02;94925.16;5061188;28;20208;-77
2022/07/23 05:14:34;;;;;;;8.93;6.00;;;;;;;34.28;31.42;94927.09;5066234;28;20223;-77
2022/07/23 05:17:01;;;;;;;10.63;6.43;;;;;;;34.40;30.81;94924.06;5064082;28;20207;-77
2022/07/23 05:19:27;;;;;;;10.25;6.78;;;;;;;33.81;31.37;94929.22;5058877;28;20195;-78
2022/07/23 05:21:54;;;;;;;9.23;6.25;;;;;;;34.11;31.37;94929.47;5059994;28;20223;-77
2022/07/23 05:24:22;;;;;;;9.98;7.03;;;;;;;34.92;29.84;94927.56;5066312;28;20253;-77
2022/07/23 05:26:49;;;;;;;8.48;6.30;;;;;;;34.92;29.86;94933.97;5064986;28;20231;-77
2022/07/23 05:29:16;;;;;;;11.35;6.60;;;;;;;35.57;29.76;94917.38;5059697;28;20203;-77
2022/07/23 05:31:43;;;;;;;7.70;6.10;;;;;;;36.17;28.59;94924.63;5059928;28;20220;-77
2022/07/23 05:34:10;;;;;;;9.65;6.47;;;;;;;35.95;28.78;94931.44;5052566;28;20654;-77
2022/07/23 05:36:37;;;;;;;7.50;6.30;;;;;;;36.31;27.70;94927.47;5052685;28;20228;-78
2022/07/23 05:39:15;;;;;;;9.57;6.95;;;;;;;36.16;27.69;94928.72;5052276;28;20709;-78
2022/07/23 05:41:56;;;;;;;23.10;12.25;;;;;;;36.70;27.75;94926.50;5052051;28;20200;-78
2022/07/23 05:44:35;;;;;;;9.65;6.93;;;;;;;36.31;27.47;94923.88;5052356;28;20587;-78
2022/07/23 05:47:12;;;;;;;22.38;12.90;;;;;;;36.74;26.78;94922.25;5052353;28;20199;-76
2022/07/23 05:49:53;;;;;;;27.15;15.10;;;;;;;36.67;26.63;94905.66;5052561;28;20192;-77
2022/07/23 05:52:20;;;;;;;26.17;14.13;;;;;;;37.46;25.78;94896.97;5052111;28;20662;-78
2022/07/23 05:54:46;;;;;;;15.93;9.25;;;;;;;37.32;24.94;94923.28;5052618;28;20203;-78
2022/07/23 05:57:15;;;;;;;8.77;5.72;;;;;;;37.08;25.56;94928.34;5052738;28;20211;-76
2022/07/23 05:59:42;;;;;;;15.23;7.68;;;;;;;37.18;25.25;94933.38;5052658;28;20249;-76
2022/07/23 06:02:08;;;;;;;47.83;24.80;;;;;;;37.50;25.74;94933.50;5052659;28;20312;-77
2022/07/23 06:04:35;;;;;;;12.75;7.00;;;;;;;35.94;27.21;94941.19;5051487;28;20281;-77
2022/07/23 06:07:02;;;;;;;8.27;6.32;;;;;;;37.49;26.18;94926.28;5051922;28;20207;-76
2022/07/23 06:09:29;;;;;;;11.75;6.25;;;;;;;36.90;26.94;94918.09;5051862;28;20662;-76
2022/07/23 06:11:56;;;;;;;9.98;6.22;;;;;;;37.26;27.00;94923.22;5051632;28;20261;-76
2022/07/23 06:14:24;;;;;;;7.00;5.97;;;;;;;37.24;26.46;94920.09;5051734;28;20212;-75
2022/07/23 06:16:51;;;;;;;9.65;6.45;;;;;;;36.66;26.91;94919.00;5051464;28;20203;-76
2022/07/23 06:19:18;;;;;;;7.55;6.75;;;;;;;36.92;26.52;94921.19;5050709;28;20257;-76
2022/07/23 06:21:45;;;;;;;10.48;5.68;;;;;;;38.06;25.71;94915.88;5051178;28;20554;-76
2022/07/23 06:24:11;;;;;;;7.78;5.97;;;;;;;37.48;26.40;94919.09;5051385;28;21096;-76
2022/07/23 06:26:38;;;;;;;8.27;5.97;;;;;;;37.69;25.45;94915.00;5051538;28;20234;-77
2022/07/23 06:29:05;;;;;;;8.63;5.85;;;;;;;37.25;26.95;94915.22;5051233;28;20232;-78
2022/07/23 06:31:33;;;;;;;10.63;6.50;;;;;;;36.90;27.90;94920.94;5051311;28;20207;-76
2022/07/23 06:34:00;;;;;;;9.18;6.05;;;;;;;35.55;28.20;94915.03;5050726;28;20199;-76
2022/07/23 06:36:27;;;;;;;8.57;5.60;;;;;;;36.80;26.79;94916.66;5051320;28;20220;-78
2022/07/23 06:38:54;;;;;;;6.00;5.40;;;;;;;36.26;26.88;94927.38;5064150;28;20742;-76
2022/07/23 06:41:22;;;;;;;7.75;6.07;;;;;;;36.08;27.14;94919.88;5061967;28;20210;-76
2022/07/23 06:43:49;;;;;;;12.30;6.70;;;;;;;37.44;26.09;94921.38;5057612;28;20220;-75
2022/07/23 06:46:16;;;;;;;7.78;5.55;;;;;;;37.41;25.84;94922.34;5059236;28;20210;-76
2022/07/23 06:48:44;;;;;;;6.53;5.32;;;;;;;37.44;26.88;94915.72;5064810;28;20232;-76
2022/07/23 06:51:11;;;;;;;10.75;5.82;;;;;;;36.45;27.20;94923.06;5063325;28;20203;-77
2022/07/23 06:53:38;;;;;;;9.57;6.05;;;;;;;37.57;25.20;94913.28;5057564;28;20610;-76
2022/07/23 06:56:05;;;;;;;10.63;6.00;;;;;;;38.13;24.88;94913.91;5058645;28;20242;-76
2022/07/23 06:58:32;;;;;;;5.85;5.05;;;;;;;38.11;24.47;94914.41;5064478;28;20204;-76
2022/07/23 07:00:59;;;;;;;10.18;5.82;;;;;;;37.27;26.48;94919.13;5051012;28;20203;-77
2022/07/23 07:03:25;;;;;;;9.80;6.22;;;;;;;36.55;26.39;94916.03;5064601;28;20210;-78
2022/07/23 07:05:53;;;;;;;6.97;5.60;;;;;;;36.51;26.17;94914.66;5063933;28;20722;-77
2022/07/23 07:08:23;;;;;;;8.98;6.28;;;;;;;35.53;27.18;94911.16;5058385;28;20295;-76
2022/07/23 07:10:53;;;;;;;9.68;6.00;;;;;;;37.06;25.53;94903.41;5056973;28;20208;-79
2022/07/23 07:13:19;;;;;;;6.85;5.35;;;;;;;37.19;25.63;94901.03;5044901;28;20210;-78
2022/07/23 07:15:46;;;;;;;9.10;5.50;;;;;;;38.42;23.80;94907.94;5057225;28;20196;-78
2022/07/23 07:18:13;;;;;;;7.43;4.90;;;;;;;37.65;24.98;94897.47;5062989;28;20208;-79
2022/07/23 07:20:40;;;;;;;10.35;5.95;;;;;;;38.32;24.74;94898.84;5063911;28;20202;-78
2022/07/23 07:23:08;;;;;;;20.00;5.80;;;;;;;36.75;26.87;94900.44;5059045;28;20198;-78
2022/07/23 07:25:35;;;;;;;6.82;5.32;;;;;;;37.64;25.06;94901.56;5057264;28;20235;-78
2022/07/23 07:28:02;;;;;;;10.55;5.35;;;;;;;37.42;25.17;94895.66;5070561;28;20226;-79
2022/07/23 07:30:29;;;;;;;12.32;6.43;;;;;;;36.67;25.74;94900.03;5057027;28;20219;-78
2022/07/23 07:32:58;;;;;;;10.93;5.43;;;;;;;37.00;26.49;94896.91;5061757;28;20230;-79
2022/07/23 07:35:26;;;;;;;7.78;5.53;;;;;;;37.49;25.99;94883.88;5063836;28;20249;-77
2022/07/23 07:37:56;;;;;;;9.10;5.93;;;;;;;36.23;26.07;94894.47;5060505;28;20572;-74
2022/07/23 07:40:24;;;;;;;7.80;5.30;;;;;;;35.55;26.78;94891.72;5056357;28;20241;-76
2022/07/23 07:42:53;;;;;;;9.80;5.50;;;;;;;33.97;28.89;94902.81;5058627;28;20224;-76
2022/07/23 07:45:22;;;;;;;11.05;5.13;;;;;;;34.81;27.87;94888.69;5072807;28;20255;-76
2022/07/23 07:47:49;;;;;;;8.85;5.20;;;;;;;35.62;27.45;94885.69;5078414;28;20226;-77
2022/07/23 07:50:16;;;;;;;12.38;5.00;;;;;;;35.26;27.64;94892.47;5056945;28;20203;-76
2022/07/23 07:52:43;;;;;;;8.43;5.55;;;;;;;35.14;27.42;94896.25;5057924;28;20212;-78
2022/07/23 07:55:11;;;;;;;7.20;5.60;;;;;;;33.82;29.86;94908.31;5062969;28;20696;-79
2022/07/23 07:57:40;;;;;;;7.95;5.43;;;;;;;34.04;29.00;94901.66;5062652;28;20256;-76
2022/07/23 08:00:09;;;;;;;8.27;5.78;;;;;;;34.41;29.86;94886.25;5056202;28;20202;-77
2022/07/23 08:02:42;;;;;;;12.23;5.70;;;;;;;35.83;27.75;94872.50;5057073;28;20208;-76
2022/07/23 08:05:09;;;;;;;6.78;4.72;;;;;;;36.23;27.24;94877.53;5050415;28;20690;-78
2022/07/23 08:07:37;;;;;;;7.70;5.00;;;;;;;36.40;27.72;94878.59;5049766;28;20227;-77
2022/07/23 08:10:04;;;;;;;7.32;5.22;;;;;;;35.75;27.31;94876.97;5050112;28;20265;-75
2022/07/23 08:12:40;;;;;;;10.05;5.32;;;;;;;34.90;28.93;94876.56;5049459;28;20681;-76
2022/07/23 08:15:09;;;;;;;10.15;6.20;;;;;;;34.30;29.29;94880.38;5049321;28;20592;-76
2022/07/23 08:17:36;;;;;;;10.82;5.30;;;;;;;33.87;29.28;94888.00;5049703;28;20729;-77
2022/07/23 08:20:03;;;;;;;8.63;5.70;;;;;;;34.75;27.93;94870.84;5049972;28;20689;-76
2022/07/23 08:22:46;;;;;;;9.45;5.10;;;;;;;35.30;27.34;94872.53;5050063;28;20290;-76
2022/07/23 08:25:13;;;;;;;7.63;5.30;;;;;;;35.48;27.90;94866.75;5049972;28;20200;-77
2022/07/23 08:27:42;;;;;;;7.65;5.85;;;;;;;35.28;27.85;94873.78;5050293;28;20199;-77
2022/07/23 08:30:10;;;;;;;12.32;5.97;;;;;;;35.56;28.13;94873.53;5053644;28;20212;-76
2022/07/23 08:32:49;;;;;;;10.98;5.78;;;;;;;34.93;29.51;94867.94;5053797;28;20776;-77
2022/07/23 08:35:16;;;;;;;8.05;5.22;;;;;;;35.25;28.53;94869.13;5053915;28;20224;-78
2022/07/23 08:37:43;;;;;;;11.68;6.07;;;;;;;36.08;27.37;94871.13;5062810;28;20203;-77
2022/07/23 08:40:11;;;;;;;11.05;5.90;;;;;;;35.31;28.66;94865.63;5060250;28;20231;-80
2022/07/23 08:42:39;;;;;;;7.65;5.70;;;;;;;35.58;28.44;94860.50;5068967;28;20775;-77
2022/07/23 08:45:09;;;;;;;11.40;5.80;;;;;;;35.39;28.55;94866.84;5056211;28;20207;-76
2022/07/23 08:47:38;;;;;;;8.63;5.45;;;;;;;35.71;29.28;94860.22;5063514;28;20629;-77
2022/07/23 08:50:05;;;;;;;7.53;5.93;;;;;;;35.27;28.51;94863.78;5066920;28;20289;-77
2022/07/23 08:52:34;;;;;;;7.60;5.55;;;;;;;34.31;30.12;94867.81;5064123;28;20257;-75
2022/07/23 08:55:01;;;;;;;12.88;5.78;;;;;;;34.15;30.27;94871.81;5059671;28;20237;-75
2022/07/23 08:57:28;;;;;;;8.30;6.18;;;;;;;33.97;30.58;94863.44;5061978;28;20262;-77
2022/07/23 08:59:55;;;;;;;10.50;6.13;;;;;;;33.69;31.03;94859.13;5066363;28;20322;-75
2022/07/23 09:02:23;;;;;;;9.88;5.57;;;;;;;34.32;29.68;94862.97;5064896;28;20199;-78
2022/07/23 09:04:49;;;;;;;10.25;6.05;;;;;;;34.97;29.92;94862.16;5054115;28;20690;-76
2022/07/23 09:07:16;;;;;;;7.05;5.97;;;;;;;34.56;30.03;94858.19;5065274;28;20332;-80
2022/07/23 09:09:46;;;;;;;8.45;5.68;;;;;;;34.04;30.06;94862.28;5059569;28;20763;-78
2022/07/23 09:12:14;;;;;;;6.35;5.55;;;;;;;34.21;29.95;94850.19;5060737;28;20203;-77
2022/07/23 09:14:42;;;;;;;9.85;5.65;;;;;;;34.51;30.58;94851.16;5066156;28;20299;-79
2022/07/23 09:17:10;;;;;;;9.85;5.88;;;;;;;34.38;30.14;94855.47;5065849;28;20598;-80
2022/07/23 09:19:39;;;;;;;7.97;5.97;;;;;;;34.85;28.88;94851.91;5059913;28;20202;-78
2022/07/23 09:22:20;;;;;;;12.07;5.72;;;;;;;35.49;27.84;94846.53;5059595;28;20613;-79
2022/07/23 09:25:08;;;;;;;7.15;5.13;;;;;;;35.70;26.54;94838.94;5072775;28;20263;-79
2022/07/23 09:27:54;;;;;;;11.63;5.57;;;;;;;36.16;26.89;94849.72;5059028;28;20207;-77
2022/07/23 09:30:22;;;;;;;9.63;5.82;;;;;;;36.16;26.42;94838.44;5059080;28;20208;-77
2022/07/23 09:33:08;;;;;;;9.55;5.68;;;;;;;35.84;26.44;94840.22;5064225;28;20200;-76
2022/07/23 09:35:51;;;;;;;9.48;5.28;;;;;;;35.83;26.41;94835.84;5071114;28;20227;-77
2022/07/23 09:38:19;;;;;;;8.95;5.85;;;;;;;35.87;25.60;94831.56;5071858;28;20661;-76
2022/07/23 09:40:47;;;;;;;8.57;5.85;;;;;;;35.98;25.65;94834.56;5058510;28;20252;-76
2022/07/23 09:43:27;;;;;;;14.18;5.50;;;;;;;35.16;25.98;94826.91;5059043;28;20220;-76
2022/07/23 09:45:54;;;;;;;10.35;5.72;;;;;;;35.67;26.33;94823.00;5062334;28;20286;-76
2022/07/23 09:48:23;;;;;;;7.65;4.63;;;;;;;35.82;25.96;94825.81;5055110;28;20245;-76
2022/07/23 09:50:52;;;;;;;8.93;4.93;;;;;;;35.45;26.19;94822.59;5062066;28;20200;-75
2022/07/23 09:53:26;;;;;;;9.02;5.75;;;;;;;35.91;25.52;94823.69;5065490;28;20211;-77
2022/07/23 09:55:56;;;;;;;8.65;4.82;;;;;;;35.20;24.35;94821.09;5063284;28;20194;-79
2022/07/23 09:58:26;;;;;;;5.40;4.53;;;;;;;35.05;24.65;94820.28;5059077;28;20256;-76
2022/07/23 10:00:54;;;;;;;6.22;4.28;;;;;;;34.91;26.06;94821.81;5059017;28;20644;-79
2022/07/23 10:03:21;;;;;;;7.80;4.32;;;;;;;34.61;25.35;94811.69;5065363;28;20228;-77
2022/07/23 10:05:51;;;;;;;6.43;4.88;;;;;;;34.90;25.29;94809.00;5052198;28;20299;-77
2022/07/23 10:08:19;;;;;;;6.10;4.40;;;;;;;35.87;24.11;94811.81;5058908;28;20195;-78
2022/07/23 10:10:47;;;;;;;8.20;4.65;;;;;;;36.03;24.79;94795.66;5058443;28;20212;-79
2022/07/23 10:15:59;;;;;;;10.93;4.38;;;;;;;35.10;24.69;94805.53;5058347;28;20756;-79
2022/07/23 10:18:27;;;;;;;5.30;4.20;;;;;;;35.12;24.47;94797.41;5062129;28;20200;-77
2022/07/23 10:20:56;;;;;;;9.23;4.90;;;;;;;35.29;23.94;94790.03;5065176;28;20214;-78
2022/07/23 10:23:28;;;;;;;7.03;4.10;;;;;;;35.78;23.49;94795.03;5062181;28;20294;-78
2022/07/23 10:26:05;;;;;;;6.43;4.50;;;;;;;35.77;23.11;94787.03;5058252;28;20284;-80
2022/07/23 10:29:03;;;;;;;5.55;4.95;;;;;;;35.56;22.41;94791.78;5058587;28;20752;-78
2022/07/23 10:31:39;;;;;;;5.45;4.60;;;;;;;35.80;22.43;94791.72;5051398;28;20507;-78
2022/07/23 10:34:15;;;;;;;5.90;4.65;;;;;;;35.59;23.07;94790.81;5051586;28;20297;-77
2022/07/23 10:36:50;;;;;;;8.63;4.35;;;;;;;35.68;23.14;94785.06;5051797;28;20243;-77
2022/07/23 10:39:23;;;;;;;7.68;4.30;;;;;;;36.13;21.94;94777.31;5070911;28;20244;-77
2022/07/23 10:41:51;;;;;;;6.45;4.13;;;;;;;36.36;21.59;94778.47;5054691;28;20312;-77
2022/07/23 10:44:22;;;;;;;8.23;4.13;;;;;;;36.49;21.68;94776.81;5060599;28;20211;-77
2022/07/23 10:47:05;;;;;;;5.47;4.00;;;;;;;36.68;21.33;94766.03;5067402;28;20581;-76
2022/07/23 10:49:34;;;;;;;7.72;4.50;;;;;;;37.15;20.59;94775.31;5062804;28;20693;-77
2022/07/23 10:52:23;;;;;;;8.05;4.05;;;;;;;37.24;21.14;94761.81;5057913;28;20268;-77
2022/07/23 10:54:51;;;;;;;11.43;4.03;;;;;;;37.01;20.61;94760.03;5057193;28;20203;-77
2022/07/23 10:57:19;;;;;;;9.35;4.05;;;;;;;37.10;19.88;94757.03;5062053;28;20291;-77
2022/07/23 11:00:25;;;;;;;8.57;4.25;;;;;;;37.15;19.56;94756.31;5063970;28;20207;-77
2022/07/23 11:02:53;;;;;;;7.47;4.07;;;;;;;36.36;20.70;94751.00;5060847;28;20227;-76
2022/07/23 11:05:22;;;;;;;5.15;3.20;;;;;;;35.67;18.77;94758.16;5059164;28;20343;-77
2022/07/23 11:08:19;;;;;;;7.47;4.13;;;;;;;35.97;19.39;94754.03;5057196;28;20212;-77
2022/07/23 11:10:52;;;;;;;6.05;3.85;;;;;;;35.48;20.26;94746.31;5058823;28;20223;-79
2022/07/23 11:13:49;;;;;;;7.25;3.70;;;;;;;35.55;19.32;94747.94;5064121;28;20207;-79
2022/07/23 11:16:22;;;;;;;7.18;3.50;;;;;;;35.62;18.63;94733.47;5039709;28;20269;-76
2022/07/23 11:19:07;;;;;;;5.45;4.03;;;;;;;35.44;19.65;94739.31;5063074;28;20272;-76
2022/07/23 11:21:50;;;;;;;8.00;3.85;;;;;;;35.88;19.44;94740.06;5058610;28;20290;-75
2022/07/23 11:24:24;;;;;;;9.52;4.72;;;;;;;36.65;19.25;94728.25;5054000;28;20253;-76
2022/07/23 11:26:59;;;;;;;11.52;4.25;;;;;;;36.72;19.40;94726.31;5061567;28;20238;-78
2022/07/23 11:29:45;;;;;;;9.60;4.40;;;;;;;36.74;19.14;94724.56;5056788;28;20315;-76
2022/07/23 11:32:30;;;;;;;19.80;7.90;;;;;;;37.22;18.60;94724.81;5057143;28;20623;-77
2022/07/23 11:34:57;;;;;;;7.15;3.88;;;;;;;37.33;17.85;94718.47;5058779;28;20709;-78
2022/07/23 11:37:34;;;;;;;14.88;6.63;;;;;;;37.33;19.19;94718.47;5068052;28;20532;-78
2022/07/23 11:40:07;;;;;;;11.35;4.53;;;;;;;37.31;17.82;94718.97;5069711;28;20245;-76
2022/07/23 11:42:34;;;;;;;17.67;6.30;;;;;;;37.62;18.48;94717.44;5050266;28;20230;-75
2022/07/23 11:45:01;;;;;;;10.45;4.40;;;;;;;37.25;17.99;94714.56;5065568;28;20202;-77